Gravette, AR (72736)

10:38 AM CDT on July 31, 2015 (GMT -0500)
Gravette Westside | | Change Station
CLOSE
Current Station
Personal Weather Station
Location: Gravette, AR
Elevation: 1220 ft
Nearby Weather Stations

Elev 1220 ft 36.42 °N, 94.46 °W | Updated 2 seconds ago

Mostly Cloudy
Mostly Cloudy
83.2 °F
Feels Like 86 °F
N
0.0
Wind Variable Wind from North
Gusts 0.0 mph

Today
High -- | Low -- °F
--% Chance of Precip.
Yesterday
High -- | Low -- °F
Precip. -- in
6:23 AM 8:24 PM
Full, 100% visible
Pressure 30.15 in
Visibility 10.0 miles
Clouds Overcast 10000 ft
Heat Index 86 °F
Dew Point 66 °F
Humidity 57%
Rainfall 0.00 in
Snow Depth Not available.
UV 2 out of 12
Pollen 4.70 out of 12
Air Quality Not available.
Flu Activity Not available.
METAR KXNA 311453Z 08005KT 10SM OVC100 27/18 A3020 RMK AO2 SLP209 T02670178 51005 $

More Conditions Fewer Conditions

Pressure 30.15 in
Visibility 10.0 miles
Clouds Overcast 10000 ft
Heat Index 86 °F
Dew Point 66 °F
Humidity 57%
Rainfall 0.00 in
Snow Depth Not available.
UV 2 out of 12
Pollen 4.70 out of 12
Air Quality Not available.
Flu Activity Not available.
METAR KXNA 311453Z 08005KT 10SM OVC100 27/18 A3020 RMK AO2 SLP209 T02670178 51005 $

More Conditions Fewer Conditions

Nowcast | as of 9:26 am CDT on July 31, 2015

At 9:26 am...Doppler radars detected scattered showers and isolated thunderstorms ongoing across parts of eastern Oklahoma and far northwest Arkansas. The bulk of this activity was concentrated across the far northeast corner of Oklahoma...with all activity moving slowly southeast. Through 11:30 am...occasional showers and isolated thunderstorms will remain possible for locations primarily along and north of a Scipio Oklahoma to Huntsville Arkansas line. Light to moderate showers will be most common...resulting in average hourly rainfall ranging from one tenth to one quarter inch. Locally higher amounts to one inch per hour are possible in heavy downpours. Brief gusty winds and dangerous lightning are also possible with any thunderstorms.

×

10-Day Weather Forecast

×

Almanac

Astronomy

Jul. 31, 2015 Rise Set
Actual Time
Civil Twilight
Nautical Twilight
Astronomical Twilight
Moon
Length of Visible Light
Length of Day
Tomorrow will be .
, % of the Moon is Illuminated

Today's Extremes

State Highs State Lows

Community

WunderPhotos

Upload Photos

1,842,669 photos uploaded!

WunderBlogs® & News

Nearby

Air Quality

  Air Quality AQ Index Pollutant
Not available.

Snow Depth

Station Depth Elevation

Earthquake Activity

City Distance Mag. Time & Date
Minimum magnitude displayed is 2.5.

Coastal Water Temperatures

Place Temperature

Stations

Nearby Weather Stations

Station Location Temp. Windchill Dew Point Humidity Wind Precip. Elev Updated Type